Air Sicilia Virtual Airways - Route

Air Sicilia Virtual Airways - SIC025C

( IT ) LICC - 08:30
Catania-Fontanarossa Airport
CATANIA ( CTA )
plane_to ( BE ) EBBR - 11:15
Brussels Airport
BRUSSELS ( BRU )

AIRPORT NEAR NAVIGATION AIDS

Type Name Frequency
NDB Catania 345 KHZ
VOR-DME Catania Fontanarossa 116250 KHZ
NDB Catania Fontanarossa 407 KHZ

METAR / TAF
LICC 181520Z 25005KT 9999 FEW015TCU SCT055 27/19 Q1015
LICC 181100Z 1812/1912 06012KT 9999 SCT040 TEMPO 1812/1818 4000 TSRA BECMG 1817/1819 VRB05KT BECMG 1908/1910 08012KT

RUNWAY INFORMATION

Runway Runway length Runway width Runway elevation Runway displaced threshold Runway heading
08 7989 148 37 312 84
26 7989 148 17 279 264

AIRPORT FREQUENCIES

Type Name Frequency
APP APP 119.25 MHZ
DIR DIRECTOR 120.8 MHZ
GND GND 129.725 MHZ
TWR TWR 118.7 MHZ

AIRPORT NEAR NAVIGATION AIDS

Type Name Frequency
VOR-DME Affligem 114900 KHZ
VOR-DME Brussels 114600 KHZ
VOR-DME Bruno 110600 KHZ
NDB Brussels 293 KHZ
NDB Brussels 314 KHZ

METAR / TAF
EBBR 181520Z 24007KT 200V270 9999 FEW037 BKN042 21/14 Q1022 NOSIG
EBBR 181100Z 1812/1918 22006KT 9999 FEW020 SCT035= EDDF 181100Z 1812/1918 33006KT CAVOK BECMG 1820/1822 04004KT BECMG 1908/1910 24007KT

RUNWAY INFORMATION

Runway Runway length Runway width Runway elevation Runway displaced threshold Runway heading
01 9800 164 183 151 14
19 9800 164 113 571 194
07L 11936 148 129 846 65
25R 11936 148 110 984 245
07R 10535 148 175 400 70
25L 10535 148 159 0 250

AIRPORT FREQUENCIES

Type Name Frequency
APP APP 118.25 MHZ
ATIS ATIS DEP 121.75 MHZ
ATIS ATIS ARR 132.475 MHZ
CLD CLNC DEL 121.95 MHZ
DEP DEP 126.625 MHZ
GND GND North 118.05 MHZ
GND GND South 121.875 MHZ
OPS MELSBROEK 140.575 MHZ
TWR TWR (RWY 0 118.6 MHZ
TWR TWR (RWY 0 120.775 MHZ
UNIC ABELAG UNI 130.55 MHZ

Flightplan

PEKOD T111 DIRED T92 SOR M736 KASTU Q48 ARBIP Z905 VIC L12 UNIMI UL12 MOGTI UP66 KPT UL608 TEDGO UZ210 LIRSU UL608 BATTY

Air Sicilia Virtual Airways Fleets

AVAILABLE AIRCRAFTS for route at this time in Catania-Fontanarossa Airport
A319 - Airbus A319
( UE ) AIRBUS

Aircraft in fleet: 1

A320 - Airbus A320
( UE ) AIRBUS

Aircraft in fleet: 3

A321 - Airbus A321
( UE ) AIRBUS

Aircraft in fleet: 4

B738 - Boeing 737-800 NGX
( US ) BOEING

Aircraft in fleet: 4

925.3 NM

Distance in nautical miles.

€ 205,00

Ticket price for this flight.

2.38 h.

Estimated flight time.



07-08-2018
Aerosoft Professional Flight Planner PFPX

PFPX - Professional Flight Planner X - è un nuovo ed innovativo strumento di pianificazione del volo sviluppato da piloti e dispatcher del mondo reale. È un'aggiunta preziosa e realistica alla tua esperienza di simulaz ....


19-07-2018
Aerosoft Oslo X

L'Aeroporto di Oslo-Gardermoen (IATA: OSL, ICAO: ENGM) è il principale aeroporto norvegese e il 19° in Europa, è situato vicino alla cittadina di Ullensaker nella contea di Akershus e serve la capitale Oslo. Ha sostit ....


21-06-2018
Aerosoft Malpensa Professional P3Dv4

L'Aeroporto di Milano-Malpensa (IATA: MXP, ICAO: LIMC) è un aeroporto italiano situato nella provincia di Varese in Lombardia, ma considerato come il principale aeroporto di Milano.

È il secondo aeroporto ital ....


06-06-2018
1° Raduno Air Sicilia Virtual - parla il C.E.O.

Grande successo per il 1° Raduno di Compagnia dell'Air Sicilia Virtual, che ha visto i membri della Crew presenti il 4 giugno 2018 a Thiene ( VI ) , cimentarsi dal vivo con le reali ....


24-05-2018
Aerosoft Airport Rome XP

Tra le nostre recensioni non poteva mancare certo la nuova uscita Aerosoft per X-Plane, stiamo parlando di Airport Rome XP, finalmente un Add-on pay completo dell'Aeroporto di Roma Fiumicino per gli utilizzatori del simu ....